createdAt,value
2019-03-19T00:00:06.049Z,4.30
2019-03-19T00:01:06.043Z,2.80
2019-03-19T00:02:06.061Z,2.30
2019-03-19T00:03:06.025Z,3.80
2019-03-19T00:04:06.002Z,4.60
2019-03-19T00:05:05.991Z,3.90
2019-03-19T00:06:05.976Z,3.00
2019-03-19T00:07:05.967Z,4.80
2019-03-19T00:08:06.007Z,4.70
2019-03-19T00:09:05.946Z,3.00
2019-03-19T00:10:05.940Z,4.00
2019-03-19T00:11:05.925Z,2.50
2019-03-19T00:12:05.919Z,3.60
2019-03-19T00:13:05.903Z,5.70
2019-03-19T00:14:05.904Z,4.60
2019-03-19T00:15:05.900Z,3.10
2019-03-19T00:16:05.872Z,3.10
2019-03-19T00:17:05.866Z,2.40
2019-03-19T00:18:05.854Z,2.70
2019-03-19T00:19:05.855Z,2.70
2019-03-19T00:20:05.876Z,2.60
2019-03-19T00:21:05.822Z,2.80
2019-03-19T00:22:15.660Z,3.00
2019-03-19T00:23:05.803Z,4.90
2019-03-19T00:24:05.791Z,2.50
2019-03-19T00:25:05.818Z,4.60
2019-03-19T00:26:05.771Z,5.50
2019-03-19T00:27:05.759Z,4.10
2019-03-19T00:28:05.741Z,2.40
2019-03-19T00:29:05.738Z,4.60
2019-03-19T00:30:05.733Z,6.00
2019-03-19T00:31:05.719Z,4.50
2019-03-19T00:32:05.697Z,4.90
2019-03-19T00:33:05.737Z,3.90
2019-03-19T00:34:05.679Z,2.30
2019-03-19T00:35:05.677Z,3.80
2019-03-19T00:36:05.668Z,3.20
2019-03-19T00:37:05.683Z,2.80
2019-03-19T00:38:05.636Z,2.80
2019-03-19T00:39:05.629Z,3.40
2019-03-19T00:40:05.613Z,4.80
2019-03-19T00:41:05.621Z,5.10
2019-03-19T00:42:05.599Z,5.10
2019-03-19T00:43:05.622Z,5.20
2019-03-19T00:44:05.576Z,5.70
2019-03-19T00:45:05.565Z,3.00
2019-03-19T00:46:05.677Z,5.40
2019-03-19T00:47:05.543Z,2.20
2019-03-19T00:48:05.538Z,2.50
2019-03-19T00:49:06.783Z,2.10
2019-03-19T00:50:05.510Z,3.30
2019-03-19T00:51:05.502Z,3.80
2019-03-19T00:52:05.526Z,2.80
2019-03-19T00:53:15.829Z,3.40
2019-03-19T00:54:05.470Z,2.60
2019-03-19T00:55:05.463Z,8.50
2019-03-19T00:56:05.461Z,8.40
2019-03-19T00:57:05.441Z,5.90
2019-03-19T00:58:05.438Z,2.50
2019-03-19T00:59:05.422Z,3.10
2019-03-19T01:00:05.404Z,3.50
2019-03-19T01:01:05.401Z,2.70
2019-03-19T01:02:05.394Z,6.50
2019-03-19T01:03:05.417Z,3.80
2019-03-19T01:04:05.363Z,5.90
2019-03-19T01:05:05.354Z,3.50
2019-03-19T01:06:05.340Z,3.50
2019-03-19T01:07:05.344Z,3.90
2019-03-19T01:08:05.326Z,4.70
2019-03-19T01:09:05.713Z,4.00
2019-03-19T01:10:05.300Z,2.20
2019-03-19T01:11:05.295Z,4.80
2019-03-19T01:12:05.281Z,5.20
2019-03-19T01:13:05.276Z,4.00
2019-03-19T01:14:05.256Z,8.00
2019-03-19T01:15:05.258Z,4.90
2019-03-19T01:16:05.234Z,3.00
2019-03-19T01:17:05.229Z,3.10
2019-03-19T01:18:05.220Z,2.20
2019-03-19T01:19:05.249Z,2.80
2019-03-19T01:20:05.196Z,5.00
2019-03-19T01:21:05.191Z,4.50
2019-03-19T01:22:05.173Z,4.90
2019-03-19T01:23:05.165Z,2.70
2019-03-19T01:24:16.179Z,2.30
2019-03-19T01:25:05.151Z,3.00
2019-03-19T01:26:05.146Z,5.10
2019-03-19T01:27:05.124Z,3.40
2019-03-19T01:28:05.116Z,3.00
2019-03-19T01:29:05.104Z,2.70
2019-03-19T01:30:05.089Z,3.90
2019-03-19T01:31:05.094Z,2.60
2019-03-19T01:32:05.069Z,2.90
2019-03-19T01:33:05.056Z,3.40
2019-03-19T01:34:05.050Z,6.10
2019-03-19T01:35:05.076Z,4.10
2019-03-19T01:36:05.038Z,4.00
2019-03-19T01:37:05.021Z,4.80
2019-03-19T01:38:05.008Z,2.80
2019-03-19T01:39:04.993Z,2.50
2019-03-19T01:40:04.982Z,3.50
2019-03-19T01:41:05.013Z,3.70
2019-03-19T01:42:04.969Z,3.70
2019-03-19T01:43:04.954Z,3.70
2019-03-19T01:44:04.941Z,2.40
2019-03-19T01:45:04.933Z,3.90
2019-03-19T01:46:04.923Z,4.60
2019-03-19T01:47:04.924Z,2.30
2019-03-19T01:48:04.939Z,4.70
2019-03-19T01:49:04.895Z,3.40
2019-03-19T01:50:04.878Z,2.60
2019-03-19T01:51:04.867Z,2.60
2019-03-19T01:52:05.651Z,3.90
2019-03-19T01:53:04.846Z,2.10
2019-03-19T01:54:04.861Z,5.40
2019-03-19T01:55:14.902Z,3.70
2019-03-19T01:56:05.684Z,5.50
2019-03-19T01:57:04.812Z,3.60
2019-03-19T01:58:04.814Z,2.10
2019-03-19T01:59:04.794Z,2.60
2019-03-19T02:00:04.772Z,4.30
2019-03-19T02:01:04.766Z,3.70
2019-03-19T02:02:04.755Z,4.90
2019-03-19T02:03:04.740Z,3.90
2019-03-19T02:04:04.752Z,2.50
2019-03-19T02:05:04.724Z,3.90
2019-03-19T02:06:04.712Z,6.60
2019-03-19T02:07:04.700Z,5.30
2019-03-19T02:08:04.685Z,2.80
2019-03-19T02:09:04.677Z,2.40
2019-03-19T02:10:04.707Z,3.80
2019-03-19T02:11:04.655Z,2.40
2019-03-19T02:12:04.649Z,4.30
2019-03-19T02:13:04.651Z,5.20
2019-03-19T02:14:04.658Z,3.30
2019-03-19T02:15:04.619Z,5.00
2019-03-19T02:16:04.606Z,4.10
2019-03-19T02:17:04.614Z,2.80
2019-03-19T02:18:04.588Z,6.30
2019-03-19T02:19:04.583Z,2.60
2019-03-19T02:20:04.579Z,2.70
2019-03-19T02:21:04.554Z,3.00
2019-03-19T02:22:04.544Z,3.50
2019-03-19T02:23:04.831Z,6.30
2019-03-19T02:24:04.516Z,5.30
2019-03-19T02:25:04.527Z,2.90
2019-03-19T02:26:16.850Z,2.40
2019-03-19T02:27:04.494Z,4.70
2019-03-19T02:28:04.483Z,3.30
2019-03-19T02:29:04.473Z,3.20
2019-03-19T02:30:04.461Z,3.80
2019-03-19T02:31:04.449Z,4.50
2019-03-19T02:32:04.445Z,3.20
2019-03-19T02:33:04.423Z,2.90
2019-03-19T02:34:04.421Z,3.60
2019-03-19T02:35:04.408Z,6.80
2019-03-19T02:36:04.391Z,3.40
2019-03-19T02:37:04.464Z,3.40
2019-03-19T02:38:04.376Z,4.60
2019-03-19T02:39:04.367Z,4.10
2019-03-19T02:40:04.350Z,3.50
2019-03-19T02:41:04.346Z,7.10
2019-03-19T02:42:04.332Z,4.60
2019-03-19T02:43:04.325Z,9.30
2019-03-19T02:44:04.311Z,6.20
2019-03-19T02:45:04.320Z,4.60
2019-03-19T02:46:04.291Z,4.70
2019-03-19T02:47:04.276Z,4.80
2019-03-19T02:48:04.306Z,6.50
2019-03-19T02:49:04.254Z,5.40
2019-03-19T02:50:04.253Z,5.20
2019-03-19T02:51:04.242Z,6.80
2019-03-19T02:52:04.232Z,6.00
2019-03-19T02:53:04.212Z,5.60
2019-03-19T02:54:04.243Z,5.40
2019-03-19T02:55:04.196Z,7.50
2019-03-19T02:56:04.181Z,6.10
2019-03-19T02:57:14.490Z,7.00
2019-03-19T02:58:04.163Z,8.90
2019-03-19T02:59:04.156Z,6.00
2019-03-19T03:00:04.175Z,7.00
2019-03-19T03:01:04.135Z,5.80
2019-03-19T03:02:04.124Z,5.50
2019-03-19T03:03:04.118Z,5.60
2019-03-19T03:04:04.102Z,8.30
2019-03-19T03:05:04.089Z,5.30
2019-03-19T03:06:04.095Z,8.20
2019-03-19T03:07:04.068Z,6.40
2019-03-19T03:08:04.059Z,7.50
2019-03-19T03:09:04.106Z,7.60
2019-03-19T03:10:04.040Z,7.10
2019-03-19T03:11:04.072Z,5.90
2019-03-19T03:12:04.012Z,7.30
2019-03-19T03:13:04.000Z,5.50
2019-03-19T03:14:03.997Z,6.30
2019-03-19T03:15:03.984Z,6.20
2019-03-19T03:16:03.970Z,8.90
2019-03-19T03:17:03.981Z,6.30
2019-03-19T03:18:03.959Z,5.50
2019-03-19T03:19:03.947Z,7.10
2019-03-19T03:20:03.930Z,8.50
2019-03-19T03:21:03.929Z,6.70
2019-03-19T03:22:03.952Z,6.30
2019-03-19T03:23:03.908Z,6.60
2019-03-19T03:24:03.894Z,6.10
2019-03-19T03:25:03.881Z,8.20
2019-03-19T03:26:03.875Z,7.30
2019-03-19T03:27:03.867Z,7.10
2019-03-19T03:28:14.327Z,9.70
2019-03-19T03:29:03.835Z,8.50
2019-03-19T03:30:03.833Z,6.60
2019-03-19T03:31:03.825Z,7.00
2019-03-19T03:32:03.804Z,7.70
2019-03-19T03:33:04.034Z,7.10
2019-03-19T03:34:03.818Z,7.20
2019-03-19T03:35:03.781Z,8.10
2019-03-19T03:36:03.766Z,7.10
2019-03-19T03:37:03.753Z,9.10
2019-03-19T03:38:03.742Z,8.40
2019-03-19T03:39:03.729Z,8.10
2019-03-19T03:40:03.740Z,9.10
2019-03-19T03:41:03.712Z,9.20
2019-03-19T03:42:03.718Z,7.30
2019-03-19T03:43:03.690Z,11.60
2019-03-19T03:44:03.683Z,9.50
2019-03-19T03:45:03.702Z,9.00
2019-03-19T03:46:03.672Z,9.30
2019-03-19T03:47:03.651Z,9.80
2019-03-19T03:48:03.647Z,8.50
2019-03-19T03:49:03.633Z,8.50
2019-03-19T03:50:03.621Z,10.90
2019-03-19T03:51:03.647Z,12.10
2019-03-19T03:52:03.612Z,9.90
2019-03-19T03:53:03.603Z,12.00
2019-03-19T03:54:03.586Z,8.50
2019-03-19T03:55:03.560Z,12.50
2019-03-19T03:56:03.556Z,12.10
2019-03-19T03:57:03.563Z,10.70
2019-03-19T03:58:03.533Z,9.70
2019-03-19T03:59:14.597Z,13.40
2019-03-19T04:00:03.506Z,12.50
2019-03-19T04:01:03.503Z,10.60
2019-03-19T04:02:03.495Z,12.40
2019-03-19T04:03:03.517Z,10.80
2019-03-19T04:04:03.627Z,10.20
2019-03-19T04:05:03.457Z,14.70
2019-03-19T04:06:03.450Z,15.90
2019-03-19T04:07:03.449Z,13.40
2019-03-19T04:08:03.423Z,13.00
2019-03-19T04:09:03.425Z,11.40
2019-03-19T04:10:03.401Z,10.10
2019-03-19T04:11:03.523Z,11.80
2019-03-19T04:12:03.411Z,12.10
2019-03-19T04:13:03.420Z,12.70
2019-03-19T04:14:03.372Z,10.80
2019-03-19T04:15:03.353Z,13.00
2019-03-19T04:16:03.349Z,10.80
2019-03-19T04:17:03.329Z,15.00
2019-03-19T04:18:03.326Z,12.40
2019-03-19T04:19:03.344Z,10.90
2019-03-19T04:20:03.308Z,11.80
2019-03-19T04:21:03.287Z,10.50
2019-03-19T04:22:03.308Z,10.50
2019-03-19T04:23:03.272Z,12.70
2019-03-19T04:24:03.265Z,10.40
2019-03-19T04:25:03.308Z,10.70
2019-03-19T04:26:03.236Z,9.60
2019-03-19T04:27:15.407Z,10.80
2019-03-19T04:28:04.220Z,11.00
2019-03-19T04:29:03.210Z,11.00
2019-03-19T04:30:13.839Z,10.40
2019-03-19T04:31:03.180Z,11.60
2019-03-19T04:32:03.175Z,8.90
2019-03-19T04:33:03.161Z,9.00
2019-03-19T04:34:03.155Z,9.30
2019-03-19T04:35:03.142Z,9.70
2019-03-19T04:36:03.143Z,7.60
2019-03-19T04:37:03.123Z,8.90
2019-03-19T04:38:03.117Z,9.10
2019-03-19T04:39:03.102Z,10.00
2019-03-19T04:40:03.094Z,10.30
2019-03-19T04:41:03.101Z,11.00
2019-03-19T04:42:03.071Z,10.00
2019-03-19T04:43:03.065Z,10.90
2019-03-19T04:44:03.047Z,8.60
2019-03-19T04:45:03.033Z,8.00
2019-03-19T04:46:03.022Z,9.90
2019-03-19T04:47:03.057Z,8.90
2019-03-19T04:48:03.753Z,9.50
2019-03-19T04:49:02.996Z,12.60
2019-03-19T04:50:02.994Z,9.90
2019-03-19T04:51:02.974Z,7.60
2019-03-19T04:52:02.959Z,8.80
2019-03-19T04:53:02.995Z,9.60
2019-03-19T04:54:02.943Z,8.60
2019-03-19T04:55:02.929Z,10.40
2019-03-19T04:56:02.928Z,8.30
2019-03-19T04:57:02.913Z,7.80
2019-03-19T04:58:02.903Z,10.60
2019-03-19T04:59:02.900Z,7.40
2019-03-19T05:00:02.876Z,7.40
2019-03-19T05:01:13.290Z,6.10
2019-03-19T05:02:02.854Z,8.90
2019-03-19T05:03:02.853Z,10.00
2019-03-19T05:04:02.846Z,7.50
2019-03-19T05:05:02.830Z,8.30
2019-03-19T05:06:02.829Z,10.10
2019-03-19T05:07:02.804Z,8.80
2019-03-19T05:08:02.796Z,9.20
2019-03-19T05:09:02.830Z,7.10
2019-03-19T05:10:02.847Z,7.70
2019-03-19T05:11:02.767Z,7.40
2019-03-19T05:12:02.756Z,7.50
2019-03-19T05:13:02.743Z,7.70
2019-03-19T05:14:02.731Z,7.90
2019-03-19T05:15:02.767Z,7.90
2019-03-19T05:16:02.709Z,10.80
2019-03-19T05:17:02.699Z,6.60
2019-03-19T05:18:02.693Z,7.10
2019-03-19T05:19:02.676Z,7.30
2019-03-19T05:20:02.669Z,7.80
2019-03-19T05:21:02.692Z,8.50
2019-03-19T05:22:02.651Z,6.60
2019-03-19T05:23:02.640Z,5.40
2019-03-19T05:24:02.625Z,6.80
2019-03-19T05:25:02.616Z,6.10
2019-03-19T05:26:02.611Z,6.00
2019-03-19T05:27:02.603Z,6.50
2019-03-19T05:28:02.583Z,6.50
2019-03-19T05:29:02.573Z,6.40
2019-03-19T05:30:02.567Z,6.10
2019-03-19T05:31:02.596Z,6.00
2019-03-19T05:32:13.051Z,6.00
2019-03-19T05:33:03.374Z,6.30
2019-03-19T05:34:02.518Z,5.80
2019-03-19T05:35:02.515Z,5.70
2019-03-19T05:36:02.497Z,5.20
2019-03-19T05:37:02.530Z,6.00
2019-03-19T05:38:02.476Z,5.80
2019-03-19T05:39:02.477Z,11.70
2019-03-19T05:40:02.461Z,6.00
2019-03-19T05:41:02.448Z,7.10
2019-03-19T05:42:02.446Z,6.70
2019-03-19T05:43:02.467Z,6.50
2019-03-19T05:44:02.413Z,8.30
2019-03-19T05:45:02.406Z,9.20
2019-03-19T05:46:02.396Z,7.70
2019-03-19T05:47:02.398Z,5.40
2019-03-19T05:48:02.373Z,5.00
2019-03-19T05:49:02.370Z,5.30
2019-03-19T05:50:02.351Z,4.80
2019-03-19T05:51:02.342Z,6.30
2019-03-19T05:52:02.334Z,7.40
2019-03-19T05:53:02.325Z,5.70
2019-03-19T05:54:02.318Z,5.90
2019-03-19T05:55:02.310Z,7.30
2019-03-19T05:56:02.289Z,4.90
2019-03-19T05:57:02.278Z,5.70
2019-03-19T05:58:02.269Z,7.60
2019-03-19T05:59:02.279Z,7.00
2019-03-19T06:00:02.257Z,5.00
2019-03-19T06:01:02.233Z,5.40
2019-03-19T06:02:02.238Z,10.70
2019-03-19T06:03:14.106Z,5.00
2019-03-19T06:04:02.201Z,5.40
2019-03-19T06:05:02.232Z,6.60
2019-03-19T06:06:02.199Z,6.20
2019-03-19T06:07:02.180Z,8.60
2019-03-19T06:08:02.165Z,7.30
2019-03-19T06:09:02.158Z,7.90
2019-03-19T06:10:02.148Z,5.50
2019-03-19T06:11:02.136Z,5.60
2019-03-19T06:12:02.123Z,4.60
2019-03-19T06:13:02.119Z,4.30
2019-03-19T06:14:02.112Z,4.80
2019-03-19T06:15:02.104Z,5.20
2019-03-19T06:16:02.445Z,6.20
2019-03-19T06:17:02.080Z,5.20
2019-03-19T06:18:02.062Z,5.10
2019-03-19T06:19:02.044Z,4.70
2019-03-19T06:20:02.038Z,7.10
2019-03-19T06:21:02.029Z,6.70
2019-03-19T06:22:02.054Z,5.40
2019-03-19T06:23:02.012Z,4.70
2019-03-19T06:24:02.008Z,5.10
2019-03-19T06:25:01.991Z,5.00
2019-03-19T06:26:01.994Z,4.30
2019-03-19T06:27:01.965Z,4.70
2019-03-19T06:28:01.995Z,5.10
2019-03-19T06:29:01.941Z,4.20
2019-03-19T06:30:01.935Z,4.20
2019-03-19T06:31:01.919Z,4.30
2019-03-19T06:32:01.911Z,4.40
2019-03-19T06:33:01.900Z,3.90
2019-03-19T06:34:12.952Z,7.50
2019-03-19T06:35:01.884Z,4.60
2019-03-19T06:36:01.899Z,4.30
2019-03-19T06:37:01.861Z,4.00
2019-03-19T06:38:01.845Z,4.20
2019-03-19T06:39:01.914Z,3.70
2019-03-19T06:40:01.837Z,7.50
2019-03-19T06:41:01.817Z,3.40
2019-03-19T06:42:01.801Z,4.20
2019-03-19T06:43:01.794Z,3.40
2019-03-19T06:44:01.785Z,3.20
2019-03-19T06:45:01.827Z,4.10
2019-03-19T06:46:01.761Z,3.60
2019-03-19T06:47:01.747Z,3.60
2019-03-19T06:48:01.749Z,5.50
2019-03-19T06:49:01.723Z,4.00
2019-03-19T06:50:01.720Z,3.00
2019-03-19T06:51:01.734Z,3.80
2019-03-19T06:52:01.694Z,3.50
2019-03-19T06:53:01.687Z,3.30
2019-03-19T06:54:01.681Z,3.60
2019-03-19T06:55:01.675Z,3.20
2019-03-19T06:56:01.695Z,3.00
2019-03-19T06:57:01.639Z,3.90
2019-03-19T06:58:10.609Z,3.60
2019-03-19T06:59:02.621Z,3.10
2019-03-19T07:00:01.650Z,3.40
2019-03-19T07:01:01.598Z,3.20
2019-03-19T07:02:01.635Z,4.60
2019-03-19T07:03:01.588Z,3.00
2019-03-19T07:04:01.574Z,3.20
2019-03-19T07:05:11.493Z,3.00
2019-03-19T07:06:01.547Z,3.40
2019-03-19T07:07:01.532Z,3.90
2019-03-19T07:08:01.962Z,3.30
2019-03-19T07:09:01.522Z,4.10
2019-03-19T07:10:01.536Z,2.70
2019-03-19T07:11:01.512Z,2.70
2019-03-19T07:12:09.010Z,3.10
2019-03-19T07:13:01.476Z,3.10
2019-03-19T07:14:01.461Z,2.50
2019-03-19T07:15:01.455Z,2.50
2019-03-19T07:16:01.491Z,3.80
2019-03-19T07:17:01.432Z,2.80
2019-03-19T07:18:01.431Z,2.50
2019-03-19T07:19:01.441Z,2.30
2019-03-19T07:20:01.397Z,3.60
2019-03-19T07:21:01.408Z,2.20
2019-03-19T07:22:01.384Z,2.10
2019-03-19T07:23:01.436Z,2.40
2019-03-19T07:24:01.356Z,2.60
2019-03-19T07:25:01.345Z,2.30
2019-03-19T07:26:01.330Z,2.10
2019-03-19T07:27:01.332Z,2.00
2019-03-19T07:28:01.311Z,2.90
2019-03-19T07:29:01.322Z,2.60
2019-03-19T07:30:01.289Z,2.20
2019-03-19T07:31:01.280Z,1.80
2019-03-19T07:32:01.267Z,2.50
2019-03-19T07:33:01.261Z,3.40
2019-03-19T07:34:01.246Z,2.00
2019-03-19T07:35:01.250Z,3.00
2019-03-19T07:36:01.234Z,2.60
2019-03-19T07:37:01.213Z,2.30
2019-03-19T07:38:01.204Z,2.80
2019-03-19T07:39:01.198Z,2.30
2019-03-19T07:40:01.257Z,3.90
2019-03-19T07:41:01.181Z,2.60
2019-03-19T07:42:01.167Z,2.70
2019-03-19T07:43:12.118Z,2.80
2019-03-19T07:44:01.145Z,2.90
2019-03-19T07:45:01.133Z,2.20
2019-03-19T07:46:01.127Z,3.00
2019-03-19T07:47:01.113Z,2.70
2019-03-19T07:48:01.093Z,2.70
2019-03-19T07:49:01.087Z,3.60
2019-03-19T07:50:01.081Z,2.80
2019-03-19T07:51:01.108Z,3.20
2019-03-19T07:52:01.067Z,3.60
2019-03-19T07:53:01.045Z,3.30
2019-03-19T07:54:01.034Z,3.60
2019-03-19T07:55:01.019Z,3.40
2019-03-19T07:56:01.012Z,3.40
2019-03-19T07:57:01.054Z,3.30
2019-03-19T07:58:00.998Z,3.50
2019-03-19T07:59:00.996Z,3.50
2019-03-19T08:00:00.973Z,4.10
2019-03-19T08:01:00.962Z,4.90
2019-03-19T08:02:00.956Z,3.60
2019-03-19T08:03:00.978Z,3.60
2019-03-19T08:04:00.930Z,3.60
2019-03-19T08:05:00.921Z,4.10
2019-03-19T08:06:00.910Z,3.80
2019-03-19T08:07:00.895Z,3.60
2019-03-19T08:08:00.881Z,4.70
2019-03-19T08:09:00.934Z,4.50
2019-03-19T08:10:00.867Z,4.40
2019-03-19T08:11:00.896Z,4.20
2019-03-19T08:12:00.881Z,3.20
2019-03-19T08:13:00.827Z,12.00
2019-03-19T08:14:12.029Z,4.20
2019-03-19T08:15:00.811Z,4.10
2019-03-19T08:16:00.800Z,3.20
2019-03-19T08:17:00.792Z,3.80
2019-03-19T08:18:00.777Z,4.10
2019-03-19T08:19:00.770Z,3.50
2019-03-19T08:20:00.784Z,3.60
2019-03-19T08:21:00.754Z,3.80
2019-03-19T08:22:00.739Z,3.50
2019-03-19T08:23:00.738Z,3.70
2019-03-19T08:24:00.711Z,3.30
2019-03-19T08:25:00.698Z,4.30
2019-03-19T08:26:00.721Z,2.70
2019-03-19T08:27:00.685Z,3.60
2019-03-19T08:28:00.674Z,3.80
2019-03-19T08:29:00.658Z,3.50
2019-03-19T08:30:00.697Z,3.40
2019-03-19T08:31:00.665Z,6.10
2019-03-19T08:32:00.630Z,3.40
2019-03-19T08:33:00.618Z,3.20
2019-03-19T08:34:00.615Z,2.70
2019-03-19T08:35:00.594Z,3.40
2019-03-19T08:36:08.989Z,3.00
2019-03-19T08:37:01.572Z,2.90
2019-03-19T08:38:00.558Z,2.60
2019-03-19T08:39:00.566Z,2.30
2019-03-19T08:40:00.537Z,2.70
2019-03-19T08:41:00.532Z,3.60
2019-03-19T08:42:00.525Z,3.20
2019-03-19T08:43:00.511Z,2.90
2019-03-19T08:44:00.494Z,2.30
2019-03-19T08:45:10.880Z,2.80
2019-03-19T08:46:00.480Z,3.10
2019-03-19T08:47:00.483Z,2.70
2019-03-19T08:48:00.459Z,2.90
2019-03-19T08:49:00.443Z,3.50
2019-03-19T08:50:00.433Z,2.80
2019-03-19T08:51:00.424Z,3.00
2019-03-19T08:52:00.426Z,2.80
2019-03-19T08:53:00.439Z,2.60
2019-03-19T08:54:00.396Z,2.10
2019-03-19T08:55:08.886Z,2.60
2019-03-19T08:56:01.149Z,2.70
2019-03-19T08:57:00.369Z,2.30
2019-03-19T08:58:00.354Z,2.30
2019-03-19T08:59:05.891Z,2.10
2019-03-19T09:01:10.037Z,1.50
2019-03-19T09:02:10.015Z,2.00
2019-03-19T09:03:10.025Z,1.90
2019-03-19T09:04:09.982Z,1.60
2019-03-19T09:05:09.996Z,1.90
2019-03-19T09:06:09.961Z,1.90
2019-03-19T09:07:09.975Z,1.70
2019-03-19T09:08:10.110Z,2.20
2019-03-19T09:09:09.938Z,2.10
2019-03-19T09:10:10.000Z,2.00
2019-03-19T09:11:09.990Z,1.60
2019-03-19T09:12:09.905Z,1.80
2019-03-19T09:13:09.885Z,1.90
2019-03-19T09:14:09.877Z,1.60
2019-03-19T09:15:09.864Z,1.90
2019-03-19T09:16:09.934Z,3.20
2019-03-19T09:17:09.846Z,1.70
2019-03-19T09:18:09.840Z,1.70
2019-03-19T09:19:09.824Z,1.70
2019-03-19T09:20:09.816Z,1.90
2019-03-19T09:21:09.852Z,1.70
2019-03-19T09:22:09.786Z,1.70
2019-03-19T09:23:09.804Z,2.90
2019-03-19T09:24:09.779Z,1.80
2019-03-19T09:25:09.753Z,2.20
2019-03-19T09:26:09.739Z,1.50
2019-03-19T09:27:09.751Z,1.70
2019-03-19T09:28:09.779Z,1.90
2019-03-19T09:29:16.802Z,3.40
2019-03-19T09:30:10.703Z,1.60
2019-03-19T09:31:16.675Z,1.90
2019-03-19T09:32:09.696Z,2.30
2019-03-19T09:33:09.682Z,1.70
2019-03-19T09:34:09.651Z,2.50
2019-03-19T09:35:09.652Z,2.00
2019-03-19T09:36:09.633Z,2.60
2019-03-19T09:37:09.636Z,3.70
2019-03-19T09:38:09.621Z,1.70
2019-03-19T09:39:09.606Z,2.20
2019-03-19T09:40:09.587Z,2.00
2019-03-19T09:41:09.580Z,2.70
2019-03-19T09:42:09.576Z,2.40
2019-03-19T09:43:09.571Z,2.30
2019-03-19T09:44:09.586Z,2.00
2019-03-19T09:45:09.551Z,2.30
2019-03-19T09:46:09.531Z,2.50
2019-03-19T09:47:09.576Z,2.60
2019-03-19T09:48:09.503Z,2.20
2019-03-19T09:49:09.495Z,2.40
2019-03-19T09:50:09.527Z,2.60
2019-03-19T09:51:09.470Z,2.10
2019-03-19T09:52:09.460Z,2.10
2019-03-19T09:53:09.453Z,2.30
2019-03-19T09:54:09.444Z,4.00
2019-03-19T09:55:09.432Z,3.30
2019-03-19T09:56:09.488Z,2.30
2019-03-19T09:57:09.409Z,2.50
2019-03-19T09:58:09.396Z,2.60
2019-03-19T09:59:09.399Z,2.60
2019-03-19T10:00:09.369Z,2.40
2019-03-19T10:01:09.366Z,2.40
2019-03-19T10:02:20.849Z,2.40
2019-03-19T10:03:09.345Z,2.30
2019-03-19T10:04:16.321Z,2.70
2019-03-19T10:05:09.323Z,3.10
2019-03-19T10:06:14.295Z,2.70
2019-03-19T10:07:10.296Z,2.30
2019-03-19T10:08:09.298Z,2.20
2019-03-19T10:09:09.274Z,3.50
2019-03-19T10:10:09.264Z,2.60
2019-03-19T10:11:09.253Z,2.20
2019-03-19T10:12:09.248Z,2.60
2019-03-19T10:13:09.250Z,2.10
2019-03-19T10:14:09.250Z,2.30
2019-03-19T10:15:09.236Z,5.20
2019-03-19T10:16:09.199Z,2.70
2019-03-19T10:17:09.210Z,3.00
2019-03-19T10:18:09.214Z,2.20
2019-03-19T10:19:09.178Z,3.70
2019-03-19T10:20:09.160Z,2.40
2019-03-19T10:21:09.184Z,2.20
2019-03-19T10:22:09.137Z,2.70
2019-03-19T10:23:09.143Z,2.50
2019-03-19T10:24:09.180Z,2.20
2019-03-19T10:25:09.102Z,2.40
2019-03-19T10:26:09.092Z,2.90
2019-03-19T10:27:09.076Z,3.00
2019-03-19T10:28:09.079Z,4.10
2019-03-19T10:29:09.069Z,2.40
2019-03-19T10:30:09.090Z,4.60
2019-03-19T10:31:09.038Z,5.80
2019-03-19T10:32:09.029Z,3.20
2019-03-19T10:33:09.024Z,4.60
2019-03-19T10:34:09.032Z,3.10
2019-03-19T10:35:19.872Z,2.80
2019-03-19T10:36:08.983Z,3.80
2019-03-19T10:37:08.973Z,2.10
2019-03-19T10:38:08.956Z,2.80
2019-03-19T10:39:09.301Z,2.80
2019-03-19T10:40:08.946Z,2.80
2019-03-19T10:41:08.974Z,2.30
2019-03-19T10:42:08.913Z,2.80
2019-03-19T10:43:08.906Z,6.70
2019-03-19T10:44:08.898Z,2.30
2019-03-19T10:45:08.883Z,2.70
2019-03-19T10:46:08.902Z,2.50
2019-03-19T10:47:08.871Z,2.50
2019-03-19T10:48:08.873Z,2.60
2019-03-19T10:49:08.845Z,2.70
2019-03-19T10:50:08.826Z,6.30
2019-03-19T10:51:08.823Z,2.70
2019-03-19T10:52:08.847Z,2.30
2019-03-19T10:53:08.792Z,3.60
2019-03-19T10:54:08.799Z,2.60
2019-03-19T10:55:08.774Z,2.80
2019-03-19T10:56:08.766Z,3.00
2019-03-19T10:57:08.750Z,2.70
2019-03-19T10:58:11.226Z,2.80
2019-03-19T10:59:08.730Z,3.80
2019-03-19T11:00:08.732Z,2.70
2019-03-19T11:01:08.708Z,3.30
2019-03-19T11:02:08.716Z,5.10
2019-03-19T11:03:08.693Z,3.30
2019-03-19T11:04:08.716Z,2.80
2019-03-19T11:05:08.664Z,2.50
2019-03-19T11:06:19.276Z,2.40
2019-03-19T11:07:08.657Z,2.60
2019-03-19T11:08:08.632Z,2.20
2019-03-19T11:09:08.624Z,2.80
2019-03-19T11:10:08.631Z,2.90
2019-03-19T11:11:08.597Z,2.70
2019-03-19T11:12:08.597Z,4.10
2019-03-19T11:13:08.578Z,2.60
2019-03-19T11:14:08.590Z,2.60
2019-03-19T11:15:08.573Z,2.70
2019-03-19T11:16:08.545Z,3.30
2019-03-19T11:17:08.534Z,3.40
2019-03-19T11:18:08.520Z,2.20
2019-03-19T11:19:08.518Z,2.10
2019-03-19T11:20:08.964Z,2.50
2019-03-19T11:21:08.494Z,2.50
2019-03-19T11:22:08.477Z,2.70
2019-03-19T11:23:08.473Z,2.50
2019-03-19T11:24:08.462Z,2.40
2019-03-19T11:25:15.940Z,2.70
2019-03-19T11:26:08.441Z,3.50
2019-03-19T11:27:08.423Z,3.20
2019-03-19T11:28:08.450Z,2.30
2019-03-19T11:29:08.409Z,3.30
2019-03-19T11:30:08.393Z,4.70
2019-03-19T11:31:08.394Z,5.10
2019-03-19T11:32:08.389Z,3.60
2019-03-19T11:33:08.373Z,3.00
2019-03-19T11:34:08.348Z,3.00
2019-03-19T11:35:08.343Z,2.30
2019-03-19T11:36:08.326Z,3.50
2019-03-19T11:37:08.320Z,2.80
2019-03-19T11:38:08.328Z,2.70
2019-03-19T11:39:08.370Z,2.60
2019-03-19T11:40:08.299Z,2.30
2019-03-19T11:41:08.276Z,2.40
2019-03-19T11:42:08.261Z,2.30
2019-03-19T11:43:08.257Z,4.30
2019-03-19T11:44:08.278Z,2.10
2019-03-19T11:45:08.235Z,2.30
2019-03-19T11:46:08.222Z,2.50
2019-03-19T11:47:08.207Z,2.60
2019-03-19T11:48:08.197Z,2.60
2019-03-19T11:49:08.189Z,2.70
2019-03-19T11:50:08.183Z,2.40
2019-03-19T11:51:08.171Z,2.20
2019-03-19T11:52:08.154Z,2.20
2019-03-19T11:53:08.142Z,2.40
2019-03-19T11:54:08.139Z,1.80
2019-03-19T11:55:08.143Z,2.60
2019-03-19T11:56:18.097Z,2.00
2019-03-19T11:57:08.096Z,2.10
2019-03-19T11:58:08.087Z,3.80
2019-03-19T11:59:08.077Z,1.70
2019-03-19T12:00:11.558Z,2.50
2019-03-19T12:01:08.062Z,2.10
2019-03-19T12:02:08.050Z,3.00
2019-03-19T12:03:15.518Z,2.10
2019-03-19T12:04:09.026Z,2.10
2019-03-19T12:05:08.011Z,2.30
2019-03-19T12:06:08.039Z,2.30
2019-03-19T12:07:07.995Z,2.00
2019-03-19T12:08:08.002Z,2.40
2019-03-19T12:09:07.964Z,2.20
2019-03-19T12:10:07.967Z,2.60
2019-03-19T12:11:07.948Z,2.00
2019-03-19T12:12:07.950Z,1.80
2019-03-19T12:13:07.924Z,3.00
2019-03-19T12:14:07.922Z,1.70
2019-03-19T12:15:07.912Z,2.00
2019-03-19T12:16:07.894Z,2.00
2019-03-19T12:17:15.514Z,1.80
2019-03-19T12:18:07.874Z,2.60
2019-03-19T12:19:07.859Z,4.50
2019-03-19T12:20:07.850Z,2.10
2019-03-19T12:21:07.836Z,2.10
2019-03-19T12:22:07.825Z,1.80
2019-03-19T12:23:07.859Z,2.00
2019-03-19T12:24:07.807Z,2.70
2019-03-19T12:25:07.790Z,1.90
2019-03-19T12:26:07.791Z,1.50
2019-03-19T12:27:07.781Z,1.90
2019-03-19T12:28:07.767Z,1.80
2019-03-19T12:29:07.759Z,1.70
2019-03-19T12:30:07.748Z,1.70
2019-03-19T12:31:07.733Z,1.60
2019-03-19T12:32:07.715Z,1.70
2019-03-19T12:33:07.708Z,2.20
2019-03-19T12:34:07.744Z,1.50
2019-03-19T12:35:07.684Z,2.90
2019-03-19T12:36:07.683Z,1.70
2019-03-19T12:37:07.662Z,1.90
2019-03-19T12:38:07.653Z,1.60
2019-03-19T12:39:09.563Z,1.70
2019-03-19T12:40:07.638Z,1.60
2019-03-19T12:41:07.622Z,2.00
2019-03-19T12:42:07.608Z,2.00
2019-03-19T12:43:07.596Z,1.50
2019-03-19T12:44:07.584Z,2.10
2019-03-19T12:45:07.617Z,2.10
2019-03-19T12:46:07.563Z,1.90
2019-03-19T12:47:07.567Z,2.10
2019-03-19T12:48:17.729Z,1.90
2019-03-19T12:49:07.538Z,1.80
2019-03-19T12:50:07.521Z,2.50
2019-03-19T12:51:07.552Z,2.30
2019-03-19T12:52:07.499Z,2.00
2019-03-19T12:53:07.493Z,2.30
2019-03-19T12:54:07.481Z,2.00
2019-03-19T12:55:07.469Z,3.00
2019-03-19T12:56:07.462Z,2.20
2019-03-19T12:57:07.467Z,2.30
2019-03-19T12:58:07.435Z,1.70
2019-03-19T12:59:07.423Z,2.10
2019-03-19T13:00:07.412Z,1.90
2019-03-19T13:01:07.532Z,2.90
2019-03-19T13:02:07.431Z,2.10
2019-03-19T13:03:07.379Z,2.40
2019-03-19T13:04:07.937Z,3.20
2019-03-19T13:05:07.362Z,2.40
2019-03-19T13:06:07.354Z,1.90
2019-03-19T13:07:07.332Z,2.30
2019-03-19T13:08:07.332Z,2.40
2019-03-19T13:09:07.319Z,2.40
2019-03-19T13:10:07.306Z,2.00
2019-03-19T13:11:07.309Z,2.30
2019-03-19T13:12:07.289Z,2.50
2019-03-19T13:13:07.319Z,2.40
2019-03-19T13:14:07.260Z,2.20
2019-03-19T13:15:07.250Z,2.30
2019-03-19T13:16:07.241Z,3.20
2019-03-19T13:17:07.226Z,1.90